Nearby METAR Reports

 

KCMA - Camarillo, California, USA
Distance from station: WSW 4mi, 7km
Updated: Sun, 21-Jul-2019 2:55pm PDT
Clear
Clear
 Wind from W
Wind: W 12 mph , 19 km/h
Temperature: 73°F , 23°C
Dew Point: 59°F , 15°C
Humidity: 61%
Barometer: 29.92 inHg , 1013.2 hPa
Clouds: Clear
Visibility: 10 miles , 16 km
2019/07/21 21:55 KCMA 212155Z 26010KT 10SM CLR 23/15 A2992 RMK AO2 SLP141 T02330150
KNTD - Point Mugu Nas, California, USA
Distance from station: SSW 9mi, 15km
Updated: Sun, 21-Jul-2019 2:57pm PDT
Partly cloudy
Partly cloudy
 Wind from WSW
Wind: WSW 10 mph , 17 km/h
Temperature: 70°F , 21°C
Dew Point: 61°F , 16°C
Humidity: 73%
Barometer: 29.94 inHg , 1013.9 hPa
Clouds: Partly cloudy
Visibility: 10 miles , 16 km
Cloud details: Few Clouds 1600 ft
Partly cloudy 24000 ft
2019/07/21 21:57 KNTD 212157Z 25009KT 10SM FEW016 SCT240 21/16 A2994 RMK AO2 SLP140 T02060161 VISNO N $
 
KOXR - Oxnard, California, USA
Distance from station: WSW 10mi, 16km
Updated: Sun, 21-Jul-2019 2:51pm PDT
Clear
Clear
 Wind from W
Wind: W 14 mph , 22 km/h
Temperature: 70°F , 21°C
Dew Point: 57°F , 14°C
Humidity: 64%
Barometer: 29.93 inHg , 1013.5 hPa
Clouds: Clear
Visibility: 10 miles , 16 km
2019/07/21 21:51 KOXR 212151Z 26012KT 10SM CLR 21/14 A2993 RMK AO2 SLP134 T02060144
KVNY - Van Nuys, California, USA
Distance from station: E 31mi, 50km
Updated: Sun, 21-Jul-2019 2:51pm PDT
Few Clouds
Few Clouds
 Wind from SE
Wind: SE 9 mph , 15 km/h
Temperature: 93°F , 34°C
Dew Point: 54°F , 12°C
Humidity: 26%
Barometer: 29.88 inHg , 1011.9 hPa
Clouds: Few Clouds
Visibility: 10 miles , 16 km
Cloud details: Few Clouds 9000 ft
2019/07/21 21:51 KVNY 212151Z 14008KT 10SM FEW090 34/12 A2988 RMK AO2 SLP109 T03390117
 
KWHP - La / Whiteman, California, USA
Distance from station: E 35mi, 56km
Updated: Sun, 21-Jul-2019 2:50pm PDT
Clear
Clear
 Wind from ESE
Wind: ESE 7 mph , 11 km/h
Temperature: 90°F , 32°C
Dew Point: 55°F , 13°C
Humidity: 31%
Barometer: 29.94 inHg , 1013.9 hPa
Clouds: Clear
Visibility: 10 miles , 16 km
2019/07/21 21:50 KWHP 212150Z 12006KT 10SM SKC 32/13 A2994
KSMO - Santa Monica, California, USA
Distance from station: ESE 36mi, 58km
Updated: Sun, 21-Jul-2019 2:51pm PDT
Clear
Clear
 Wind from W
Wind: W 12 mph , 19 km/h
Temperature: 72°F , 22°C
Dew Point: 61°F , 16°C
Humidity: 69%
Barometer: 29.92 inHg , 1013.2 hPa
Clouds: Clear
Visibility: 10 miles , 16 km
2019/07/21 21:51 KSMO 212151Z 26010KT 10SM CLR 22/16 A2992 RMK AO2 SLP129 T02170161
 
KBUR - Burbank, California, USA
Distance from station: E 38mi, 61km
Updated: Sun, 21-Jul-2019 2:53pm PDT
Clear
Clear
 Wind from S
Wind: S 10 mph , 17 km/h
Temperature: 88°F , 31°C
Heat Index: 88°F , 31°C
Dew Point: 61°F , 16°C
Humidity: 40%
Barometer: 29.89 inHg , 1012.2 hPa
Clouds: Clear
Visibility: 10 miles , 16 km
2019/07/21 21:53 KBUR 212153Z 17009KT 10SM CLR 31/16 A2989 RMK AO2 SLP109 T03060156 $
KSDB - Sandberg, California, USA
Distance from station: NNE 40mi, 64km
Updated: Sun, 21-Jul-2019 2:53pm PDT

 
Barometer: 30.12 inHg , 1020 hPa
2019/07/21 21:53 KSDB 212153Z AUTO A3012 RMK AO2 SLPNO PWINO $
 
KLAX - Los Angeles, California, USA
Distance from station: ESE 42mi, 68km
Updated: Sun, 21-Jul-2019 2:53pm PDT
Few Clouds
Few Clouds
 Wind from W
Wind: W 18 mph , 30 km/h
Temperature: 72°F , 22°C
Dew Point: 61°F , 16°C
Humidity: 69%
Barometer: 29.92 inHg , 1013.2 hPa
Clouds: Few Clouds
Visibility: 10 miles , 16 km
Cloud details: Few Clouds 1200 ft
Few Clouds 25000 ft
2019/07/21 21:53 KLAX 212153Z 26016KT 10SM FEW012 FEW250 22/16 A2992 RMK AO2 SLP130 T02170156 $
KCQT - Los Angeles, California, USA
Distance from station: ESE 45mi, 73km
Updated: Sun, 21-Jul-2019 2:52pm PDT
Clear
Clear
 Wind from W
Wind: W 8 mph , 13 km/h
Temperature: 75°F , 24°C
Dew Point: 61°F , 16°C
Humidity: 61%
Barometer: 29.90 inHg , 1012.5 hPa
Clouds: Clear
Visibility: 10 miles , 16 km
2019/07/21 21:52 KCQT 212152Z AUTO 27007KT 10SM CLR 24/16 A2990 RMK AO2 SLP122 T02440156
 
KHHR - Hawthorne, California, USA
Distance from station: ESE 45mi, 73km
Updated: Sun, 21-Jul-2019 2:53pm PDT
Clear
Clear
 Wind from W
Wind: W 13 mph , 20 km/h
Temperature: 73°F , 23°C
Dew Point: 59°F , 15°C
Humidity: 61%
Barometer: 29.92 inHg , 1013.2 hPa
Clouds: Clear
Visibility: 10 miles , 16 km
2019/07/21 21:53 KHHR 212153Z AUTO 27011KT 10SM CLR 23/15 A2992 RMK AO2 SLP129 T02330150 $
KSBA - Santa Barbara, California, USA
Distance from station: WNW 49mi, 79km
Updated: Sun, 21-Jul-2019 2:53pm PDT
Clear
Clear
 Wind from WSW
Wind: WSW 10 mph , 17 km/h
Temperature: 68°F , 20°C
Dew Point: 57°F , 14°C
Humidity: 69%
Barometer: 29.93 inHg , 1013.5 hPa
Clouds: Clear
Visibility: 10 miles , 16 km
2019/07/21 21:53 KSBA 212153Z 25009KT 10SM CLR 20/14 A2993 RMK AO2 SLP134 T02000144